Thursday, November 23, 2017, 2:17 AM EST
Back to Local

KAGC, Pittsburgh Allegheny Cty.

Location: West Mifflin, PA, United States Lat: 40.35
Local Time: 2:17 AM EST ( 7:17 GMT) Lon: -79.917
Time Zone: US/Eastern Elev: 1253 ft

Show me the last for .
Show Decoded

2017-11-23 01:53 METAR KAGC 230653Z 27004KT 10SM CLR M03/M08 A3016 RMK AO2 SLP232 T10281083 =
2017-11-23 00:53 METAR KAGC 230553Z 27005KT 10SM CLR M02/M09 A3017 RMK AO2 SLP233 T10221089 10000
                 21022 58008 =
2017-11-22 23:53 METAR KAGC 230453Z 27005KT 10SM CLR M02/M09 A3019 RMK AO2 SLP241 T10171089
                 400941022 =
2017-11-22 22:53 METAR KAGC 230353Z 26006KT 10SM CLR M02/M09 A3020 RMK AO2 SLP244 T10171089 =
2017-11-22 21:53 METAR KAGC 230253Z 00000KT 10SM BKN037 M01/M09 A3019 RMK AO2 SLP242 T10061094
                 58009 =
2017-11-22 20:53 METAR KAGC 230153Z 35005KT 10SM OVC037 M01/M09 A3021 RMK AO2 SLP247 T10061089 =
2017-11-22 19:53 METAR KAGC 230053Z 33007KT 10SM OVC035 00/M09 A3022 RMK AO2 SLP251 T00001089 =
2017-11-22 19:16 METAR KAGC 230016Z 33007KT 10SM OVC031 00/M07 A3023 RMK AO2 T00001072 =
2017-11-22 18:53 METAR KAGC 222353Z 35009G17KT 10SM OVC028 00/M07 A3022 RMK AO2 SLP251 T00001067
                 10017 20000 51016 =
2017-11-22 17:53 METAR KAGC 222253Z 32007KT 280V340 10SM OVC027 01/M06 A3022 RMK AO2 SLP249
                 T00061056 =
2017-11-22 17:19 METAR KAGC 222219Z 29006KT 10SM OVC029 01/M06 A3020 RMK AO2 T00061061 =
2017-11-22 16:53 METAR KAGC 222153Z VRB04KT 10SM OVC030 01/M06 A3019 RMK AO2 SLP240 T00061056 =
2017-11-22 15:53 METAR KAGC 222053Z 30006KT 10SM OVC031 01/M06 A3017 RMK AO2 SLP233 T00061056
                 53004 =
2017-11-22 14:53 METAR KAGC 221953Z 30008KT 10SM OVC037 01/M05 A3016 RMK AO2 SLP227 T00111050 =
2017-11-22 14:28 METAR KAGC 221928Z 31009G17KT 10SM SCT030 OVC035 01/M06 A3016 RMK AO2 T00111056
                 =
2017-11-22 14:00 METAR KAGC 221900Z 32010G18KT 10SM OVC029 01/M05 A3016 RMK AO2 T00111050 =
2017-11-22 13:53 METAR KAGC 221853Z 31007KT 10SM OVC030 01/M05 A3016 RMK AO2 SLP225 T00111050 =
2017-11-22 13:24 METAR KAGC 221824Z 32007G15KT 10SM OVC031 01/M05 A3016 RMK AO2 T00111050 =
2017-11-22 13:06 METAR KAGC 221806Z 32010G16KT 10SM BKN029 OVC034 01/M05 A3016 RMK AO2 T00111050
                 =
2017-11-22 12:53 METAR KAGC 221753Z 32011G18KT 10SM SCT027 OVC034 02/M04 A3016 RMK AO2 SLP225
                 60005 T00171044 10022 20006 50005 =
2017-11-22 11:53 METAR KAGC 221653Z 32009G21KT 10SM OVC040 02/M04 A3016 RMK AO2 SLP225 T00171039
                 =
2017-11-22 11:36 METAR KAGC 221636Z 31010G21KT 10SM FEW021 OVC044 02/M04 A3016 RMK AO2 T00171039
                 =
2017-11-22 10:53 METAR KAGC 221553Z 32009G16KT 10SM BKN020 BKN025 OVC030 02/M03 A3016 RMK AO2
                 SLP224 T00171028 =
2017-11-22 09:53 METAR KAGC 221453Z 34011G21KT 7SM BKN018 OVC030 01/M02 A3014 RMK AO2 UPE05
                 SLP219 P0003 60005 T00111017 51026 =
2017-11-22 09:03 METAR KAGC 221403Z 33010G20KT 7SM UP SCT006 OVC015 01/M01 A3012 RMK AO2 P0001
                 T00111011 =
2017-11-22 08:53 METAR KAGC 221353Z 32009G18KT 2SM UP BR BKN006 OVC011 01/M01 A3011 RMK AO2
                 RAB03E18UPB52SNB18E52 CIG 003V007 SLP209 P0002 T00111011 =
2017-11-22 08:36 METAR KAGC 221336Z 32010KT 2SM -SN BR BKN005 OVC010 01/M01 A3011 RMK AO2
                 RAB03E18SNB18 P0000 T00061011 =
2017-11-22 08:28 METAR KAGC 221328Z 30006G16KT 3/4SM R28/3500VP6000FT -SN BR BKN005 OVC011 01/M01
                 A3010 RMK AO2 RAB03E18SNB18 P0000 T00061011 =
2017-11-22 08:10 METAR KAGC 221310Z 28006KT 1 3/4SM R28/6000VP6000FT RA BR BKN009 BKN018 OVC029
                 02/00 A3010 RMK AO2 VIS 3/4V5 RAB03 P0000 T00170000 =
2017-11-22 07:53 METAR KAGC 221253Z VRB04KT 8SM BKN009 BKN015 OVC039 02/00 A3009 RMK AO2 CIG
                 006V012 SLP202 T00220000 =
2017-11-22 06:53 METAR KAGC 221153Z 32007G18KT 6SM BR OVC006 02/00 A3006 RMK AO2 SLP191 60006
                 70006 T00220000 10089 20017 51025 =
2017-11-22 05:53 METAR KAGC 221053Z VRB06KT 10SM OVC008 02/00 A3004 RMK AO2 RAE29UPB29E32 SLP183
                 P0002 T00170000 =
2017-11-22 04:53 METAR KAGC 220953Z 31011G22KT 9SM -RA BKN008 OVC018 02/00 A3001 RMK AO2 SLP173
                 P0004 T00220000 =
2017-11-22 04:37 METAR KAGC 220937Z 32009G17KT 10SM -RA OVC008 03/01 A3001 RMK AO2 CIG 007V013
                 P0003 T00280006 =
2017-11-22 04:03 METAR KAGC 220903Z 33008G20KT 9SM -RA BKN013 OVC019 03/01 A2999 RMK AO2 P0001
                 T00330006 =
2017-11-22 03:53 METAR KAGC 220853Z 33008G17KT 9SM -RA SCT013 BKN018 OVC027 04/01 A2998 RMK AO2
                 PK WND 33026/0813 RAB33 SLP162 P0000 60000 T00390006 53022 =
2017-11-22 03:21 METAR KAGC 220821Z 33011G26KT 300V360 10SM BKN027 OVC034 06/00 A2996 RMK AO2 PK
                 WND 33026/0813 T00560000 =
2017-11-22 02:53 METAR KAGC 220753Z 29007KT 10SM FEW035 OVC050 08/M01 A2995 RMK AO2 SLP148
                 T00781006 =

Support USWX by starting your Amazon purchase here.